Plano's Hourly Summary for Wednesday, July 11, 2018
Hour Temp
(f)
RH
(%)
Solar Rad.
(MJ/m2)
Rainfall
(in)
Wind
(mph)
7/11/2018 12:00 AM 76 82 0 0 0
7/11/2018 1:00 AM 76 83 0 0 0
7/11/2018 2:00 AM 76 86 0 0 0
7/11/2018 3:00 AM 75 87 0 0 0
7/11/2018 4:00 AM 74 88 0 0 0
7/11/2018 5:00 AM 74 90 0 0 0
7/11/2018 6:00 AM 74 91 0 0 0
7/11/2018 7:00 AM 75 82 0.02 0 0
7/11/2018 8:00 AM 77 77 0.13 0 0.05
7/11/2018 9:00 AM 79 73 0.42 0 0.53
7/11/2018 10:00 AM 81 65 1.26 0 1.36
7/11/2018 11:00 AM 84 59 1.53 0 0.8
7/11/2018 12:00 PM 89 49 2.3 0 1.52
7/11/2018 1:00 PM 92 43 3.13 0 2.73
7/11/2018 2:00 PM 93 36 3.13 0 1.96
7/11/2018 3:00 PM 95 35 2.91 0 2.59
7/11/2018 4:00 PM 94 36 1.57 0 3.26
7/11/2018 5:00 PM 94 38 2.19 0 3.09
7/11/2018 6:00 PM 95 37 2.14 0 3.2
7/11/2018 7:00 PM 93 39 0.63 0 2.25
7/11/2018 8:00 PM 92 41 0.28 0 2.09
7/11/2018 9:00 PM 89 44 0.05 0 2.41
7/11/2018 10:00 PM 87 52 0 0 2.22
7/11/2018 11:00 PM 85 56 0 0 1.81
Data Summary 84 61 21.69 0.00 1.33